createdAt,value
2023-01-30T00:01:19.712Z,65.82
2023-01-30T00:03:49.269Z,66.38
2023-01-30T00:06:17.986Z,66.08
2023-01-30T00:08:46.459Z,66.23
2023-01-30T00:11:17.621Z,65.79
2023-01-30T00:13:46.287Z,65.81
2023-01-30T00:16:14.606Z,65.89
2023-01-30T00:18:44.249Z,65.85
2023-01-30T00:21:16.107Z,65.74
2023-01-30T00:23:45.394Z,65.34
2023-01-30T00:26:14.103Z,65.55
2023-01-30T00:28:42.320Z,65.30
2023-01-30T00:31:10.943Z,65.57
2023-01-30T00:33:40.139Z,65.46
2023-01-30T00:36:10.516Z,65.36
2023-01-30T00:38:40.303Z,65.83
2023-01-30T00:41:10.592Z,66.19
2023-01-30T00:44:04.745Z,66.57
2023-01-30T00:46:52.634Z,66.87
2023-01-30T00:49:21.320Z,67.00
2023-01-30T00:51:49.456Z,67.25
2023-01-30T00:54:18.915Z,67.53
2023-01-30T00:56:47.189Z,67.91
2023-01-30T00:59:15.496Z,67.89
2023-01-30T01:01:43.728Z,68.41
2023-01-30T01:04:12.229Z,68.83
2023-01-30T01:06:41.747Z,68.85
2023-01-30T01:09:10.275Z,69.02
2023-01-30T01:11:39.833Z,69.11
2023-01-30T01:14:08.746Z,69.29
2023-01-30T01:16:37.497Z,69.18
2023-01-30T01:19:06.314Z,69.52
2023-01-30T01:21:34.499Z,69.13
2023-01-30T01:24:02.683Z,69.15
2023-01-30T01:26:30.940Z,69.01
2023-01-30T01:29:01.001Z,68.96
2023-01-30T01:31:29.446Z,68.64
2023-01-30T01:33:58.421Z,68.57
2023-01-30T01:36:52.075Z,69.22
2023-01-30T01:39:14.754Z,69.28
2023-01-30T01:41:41.922Z,69.80
2023-01-30T01:44:13.606Z,69.87
2023-01-30T01:46:48.360Z,69.46
2023-01-30T01:49:23.859Z,68.83
2023-01-30T01:51:59.990Z,68.94
2023-01-30T01:54:37.440Z,69.15
2023-01-30T01:57:13.742Z,69.56
2023-01-30T01:59:49.909Z,69.13
2023-01-30T02:02:19.527Z,69.08
2023-01-30T02:05:06.503Z,69.42
2023-01-30T02:07:41.054Z,69.13
2023-01-30T02:10:14.880Z,69.09
2023-01-30T02:12:44.819Z,69.56
2023-01-30T02:15:14.534Z,68.73
2023-01-30T02:17:42.703Z,68.92
2023-01-30T02:20:27.264Z,68.73
2023-01-30T02:23:50.746Z,68.85
2023-01-30T02:26:54.183Z,69.17
2023-01-30T02:30:07.674Z,69.52
2023-01-30T02:32:50.697Z,69.29
2023-01-30T02:35:34.577Z,69.90
2023-01-30T02:38:20.943Z,69.46
2023-01-30T02:41:03.334Z,69.69
2023-01-30T02:43:45.541Z,70.14
2023-01-30T02:46:21.407Z,70.41
2023-01-30T02:48:58.901Z,70.65
2023-01-30T02:51:32.653Z,70.71
2023-01-30T02:54:01.362Z,70.76
2023-01-30T02:56:29.580Z,70.76
2023-01-30T02:59:02.705Z,70.75
2023-01-30T03:02:17.196Z,70.38
2023-01-30T03:05:22.676Z,70.49
2023-01-30T03:08:03.926Z,70.17
2023-01-30T03:10:42.400Z,70.21
2023-01-30T03:13:21.041Z,70.44
2023-01-30T03:15:56.441Z,70.49
2023-01-30T03:18:24.700Z,70.44
2023-01-30T03:20:54.734Z,70.36
2023-01-30T03:23:22.947Z,70.66
2023-01-30T03:25:51.168Z,70.53
2023-01-30T03:28:22.323Z,70.99
2023-01-30T03:30:50.571Z,71.28
2023-01-30T03:33:18.794Z,70.90
2023-01-30T03:35:46.977Z,71.21
2023-01-30T03:38:16.675Z,70.73
2023-01-30T03:40:44.974Z,70.57
2023-01-30T03:43:13.204Z,70.89
2023-01-30T03:45:41.253Z,70.99
2023-01-30T03:48:09.425Z,70.48
2023-01-30T03:50:37.659Z,70.87
2023-01-30T03:53:05.824Z,70.99
2023-01-30T03:55:35.265Z,70.69
2023-01-30T03:58:03.695Z,70.40
2023-01-30T04:00:31.885Z,70.50
2023-01-30T04:03:00.000Z,70.69
2023-01-30T04:05:28.129Z,70.85
2023-01-30T04:07:58.707Z,71.25
2023-01-30T04:10:27.940Z,71.11
2023-01-30T04:12:57.579Z,71.05
2023-01-30T04:15:25.762Z,71.36
2023-01-30T04:17:53.910Z,71.13
2023-01-30T04:20:22.049Z,70.92
2023-01-30T04:22:50.175Z,71.03
2023-01-30T04:25:18.603Z,71.20
2023-01-30T04:27:46.926Z,71.08
2023-01-30T04:30:17.061Z,70.80
2023-01-30T04:32:45.177Z,71.15
2023-01-30T04:35:13.508Z,71.20
2023-01-30T04:37:41.672Z,71.92
2023-01-30T04:40:11.939Z,72.46
2023-01-30T04:42:40.080Z,72.64
2023-01-30T04:45:09.717Z,72.39
2023-01-30T04:47:39.214Z,72.78
2023-01-30T04:50:08.927Z,72.63
2023-01-30T04:52:38.922Z,72.67
2023-01-30T04:55:08.880Z,72.38
2023-01-30T04:57:36.979Z,72.19
2023-01-30T05:00:06.967Z,71.80
2023-01-30T05:02:35.157Z,72.26
2023-01-30T05:05:04.847Z,72.15
2023-01-30T05:07:32.991Z,72.15
2023-01-30T05:10:02.785Z,72.27
2023-01-30T05:12:31.337Z,72.45
2023-01-30T05:14:59.462Z,72.20
2023-01-30T05:17:27.679Z,72.16
2023-01-30T05:19:55.804Z,72.41
2023-01-30T05:22:25.627Z,72.40
2023-01-30T05:24:53.841Z,72.64
2023-01-30T05:27:22.013Z,72.69
2023-01-30T05:29:50.142Z,72.57
2023-01-30T05:32:21.134Z,72.50
2023-01-30T05:34:50.451Z,73.02
2023-01-30T05:37:18.575Z,72.70
2023-01-30T05:39:48.057Z,72.55
2023-01-30T05:42:17.126Z,72.67
2023-01-30T05:44:45.973Z,72.74
2023-01-30T05:47:14.391Z,72.57
2023-01-30T05:49:43.041Z,72.50
2023-01-30T05:52:11.088Z,72.62
2023-01-30T05:54:39.141Z,72.80
2023-01-30T05:57:08.520Z,73.07
2023-01-30T05:59:36.565Z,73.06
2023-01-30T06:02:04.626Z,73.04
2023-01-30T06:04:32.648Z,73.77
2023-01-30T06:07:00.682Z,73.79
2023-01-30T06:09:28.742Z,74.17
2023-01-30T06:11:56.738Z,74.40
2023-01-30T06:14:26.125Z,74.13
2023-01-30T06:16:54.379Z,74.01
2023-01-30T06:19:22.490Z,74.49
2023-01-30T06:21:50.564Z,74.59
2023-01-30T06:24:18.648Z,74.55
2023-01-30T06:26:46.768Z,74.50
2023-01-30T06:29:15.170Z,74.41
2023-01-30T06:31:44.660Z,74.64
2023-01-30T06:34:13.059Z,74.54
2023-01-30T06:36:41.131Z,74.60
2023-01-30T06:39:09.370Z,74.61
2023-01-30T06:41:37.494Z,74.84
2023-01-30T06:44:06.099Z,75.20
2023-01-30T06:46:34.293Z,76.13
2023-01-30T06:49:03.801Z,75.87
2023-01-30T06:51:32.472Z,75.75
2023-01-30T06:54:00.617Z,76.07
2023-01-30T06:56:28.794Z,76.38
2023-01-30T06:58:56.917Z,76.00
2023-01-30T07:01:25.017Z,75.92
2023-01-30T07:03:53.123Z,75.45
2023-01-30T07:06:22.594Z,75.37
2023-01-30T07:08:50.661Z,75.21
2023-01-30T07:11:18.729Z,75.12
2023-01-30T07:13:46.830Z,74.98
2023-01-30T07:16:14.870Z,75.13
2023-01-30T07:18:42.920Z,75.88
2023-01-30T07:21:10.977Z,76.22
2023-01-30T07:23:40.361Z,76.26
2023-01-30T07:26:08.479Z,76.46
2023-01-30T07:28:36.590Z,76.61
2023-01-30T07:31:04.678Z,76.77
2023-01-30T07:33:32.735Z,76.95
2023-01-30T07:36:00.776Z,76.57
2023-01-30T07:38:28.851Z,76.48
2023-01-30T07:40:59.927Z,76.37
2023-01-30T07:43:28.021Z,76.58
2023-01-30T07:45:56.062Z,76.84
2023-01-30T07:48:24.110Z,76.54
2023-01-30T07:50:52.533Z,75.85
2023-01-30T07:53:20.571Z,75.49
2023-01-30T07:55:48.892Z,75.89
2023-01-30T07:58:18.356Z,75.36
2023-01-30T08:00:46.643Z,75.17
2023-01-30T08:03:16.651Z,74.74
2023-01-30T08:05:46.843Z,74.76
2023-01-30T08:08:15.241Z,74.90
2023-01-30T08:10:43.383Z,74.11
2023-01-30T08:13:11.491Z,74.23
2023-01-30T08:15:41.062Z,74.47
2023-01-30T08:18:09.161Z,74.55
2023-01-30T08:20:38.263Z,73.76
2023-01-30T08:23:06.476Z,73.46
2023-01-30T08:25:35.383Z,73.31
2023-01-30T08:28:04.775Z,73.55
2023-01-30T08:30:32.952Z,73.77
2023-01-30T08:33:02.592Z,73.66
2023-01-30T08:35:30.655Z,73.48
2023-01-30T08:37:59.875Z,73.57
2023-01-30T08:40:28.320Z,73.57
2023-01-30T08:42:56.956Z,73.41
2023-01-30T08:45:25.047Z,73.06
2023-01-30T08:47:53.100Z,72.71
2023-01-30T08:50:22.614Z,72.85
2023-01-30T08:52:50.654Z,72.73
2023-01-30T08:55:19.068Z,72.55
2023-01-30T08:57:47.188Z,72.04
2023-01-30T09:00:17.564Z,71.99
2023-01-30T09:02:48.569Z,72.40
2023-01-30T09:05:16.973Z,72.84
2023-01-30T09:07:46.500Z,72.65
2023-01-30T09:10:14.868Z,72.04
2023-01-30T09:12:42.876Z,71.87
2023-01-30T09:15:12.148Z,71.57
2023-01-30T09:17:40.242Z,71.23
2023-01-30T09:20:13.009Z,71.37
2023-01-30T09:22:41.140Z,71.69
2023-01-30T09:25:11.115Z,71.88
2023-01-30T09:27:39.142Z,71.28
2023-01-30T09:30:09.186Z,70.86
2023-01-30T09:32:37.492Z,69.73
2023-01-30T09:35:06.333Z,69.55
2023-01-30T09:37:34.375Z,69.43
2023-01-30T09:40:02.409Z,69.24
2023-01-30T09:43:05.135Z,69.65
2023-01-30T09:45:46.718Z,69.22
2023-01-30T09:48:27.953Z,69.25
2023-01-30T09:51:22.994Z,69.48
2023-01-30T09:54:17.929Z,69.73
2023-01-30T09:56:46.381Z,69.98
2023-01-30T09:59:28.906Z,70.13
2023-01-30T10:02:25.778Z,70.20
2023-01-30T10:05:01.884Z,70.22
2023-01-30T10:07:57.143Z,70.56
2023-01-30T10:10:50.988Z,69.99
2023-01-30T10:13:43.606Z,69.69
2023-01-30T10:16:22.658Z,69.67
2023-01-30T10:19:36.751Z,69.37
2023-01-30T10:22:22.562Z,69.88
2023-01-30T10:25:04.237Z,69.96
2023-01-30T10:27:34.408Z,70.48
2023-01-30T10:30:08.968Z,70.67
2023-01-30T10:32:48.250Z,71.02
2023-01-30T10:35:21.606Z,71.21
2023-01-30T10:37:59.490Z,71.38
2023-01-30T10:40:39.301Z,71.13
2023-01-30T10:43:20.522Z,70.72
2023-01-30T10:46:02.569Z,70.47
2023-01-30T10:48:55.352Z,70.50
2023-01-30T10:51:44.601Z,70.21
2023-01-30T10:54:22.245Z,70.27
2023-01-30T10:57:03.173Z,70.48
2023-01-30T10:59:46.536Z,71.29
2023-01-30T11:02:26.627Z,71.43
2023-01-30T11:05:03.744Z,71.75
2023-01-30T11:07:34.457Z,71.73
2023-01-30T11:10:02.584Z,70.95
2023-01-30T11:12:30.665Z,70.96
2023-01-30T11:15:01.279Z,70.75
2023-01-30T11:17:38.383Z,70.99
2023-01-30T11:20:16.014Z,70.97
2023-01-30T11:22:50.185Z,70.67
2023-01-30T11:25:22.554Z,70.67
2023-01-30T11:27:57.902Z,69.98
2023-01-30T11:30:31.063Z,69.97
2023-01-30T11:33:13.710Z,70.07
2023-01-30T11:35:56.897Z,69.76
2023-01-30T11:38:28.654Z,69.90
2023-01-30T11:41:19.106Z,68.59
2023-01-30T11:43:48.257Z,67.72
2023-01-30T11:46:20.998Z,68.33
2023-01-30T11:49:32.575Z,68.37
2023-01-30T11:51:48.565Z,68.36
2023-01-30T11:54:21.975Z,68.68
2023-01-30T11:56:56.237Z,68.49
2023-01-30T11:59:31.729Z,69.13
2023-01-30T12:02:17.443Z,69.05
2023-01-30T12:04:47.180Z,69.41
2023-01-30T12:07:24.651Z,69.79
2023-01-30T12:09:54.176Z,69.77
2023-01-30T12:12:35.345Z,70.38
2023-01-30T12:15:24.239Z,71.13
2023-01-30T12:18:04.530Z,71.23
2023-01-30T12:20:50.697Z,70.84
2023-01-30T12:23:31.163Z,69.76
2023-01-30T12:26:08.518Z,68.86
2023-01-30T12:28:48.430Z,69.08
2023-01-30T12:31:25.825Z,69.69
2023-01-30T12:33:55.219Z,69.74
2023-01-30T12:36:42.652Z,69.05
2023-01-30T12:39:40.846Z,68.36
2023-01-30T12:42:35.814Z,67.97
2023-01-30T12:45:21.242Z,68.14
2023-01-30T12:48:43.921Z,68.48
2023-01-30T12:51:36.878Z,68.38
2023-01-30T12:54:20.295Z,67.92
2023-01-30T12:57:10.136Z,67.67
2023-01-30T12:59:50.545Z,67.84
2023-01-30T13:02:48.496Z,67.76
2023-01-30T13:05:34.048Z,68.05
2023-01-30T13:08:22.787Z,68.08
2023-01-30T13:11:04.186Z,67.73
2023-01-30T13:13:43.010Z,67.49
2023-01-30T13:16:24.883Z,67.87
2023-01-30T13:18:59.765Z,67.24
2023-01-30T13:21:37.808Z,67.03
2023-01-30T13:24:27.069Z,67.01
2023-01-30T13:27:01.481Z,67.63
2023-01-30T13:29:38.908Z,67.64
2023-01-30T13:32:16.659Z,68.21
2023-01-30T13:34:49.360Z,68.42
2023-01-30T13:37:20.196Z,68.79
2023-01-30T13:39:53.881Z,68.73
2023-01-30T13:42:34.022Z,68.72
2023-01-30T13:45:06.013Z,68.54
2023-01-30T13:47:53.207Z,69.41
2023-01-30T13:50:56.562Z,68.36
2023-01-30T13:53:33.712Z,68.79
2023-01-30T13:56:39.633Z,68.86
2023-01-30T13:59:26.336Z,68.59
2023-01-30T14:02:21.600Z,68.67
2023-01-30T14:04:52.788Z,68.83
2023-01-30T14:07:29.497Z,67.92
2023-01-30T14:10:15.255Z,67.48
2023-01-30T14:12:47.725Z,67.53
2023-01-30T14:15:28.836Z,67.04
2023-01-30T14:18:07.204Z,66.50
2023-01-30T14:20:38.103Z,66.74
2023-01-30T14:23:20.155Z,66.08
2023-01-30T14:25:51.734Z,67.15
2023-01-30T14:28:50.888Z,67.84
2023-01-30T14:31:53.187Z,70.64
2023-01-30T14:34:42.134Z,72.57
2023-01-30T14:38:04.591Z,73.57
2023-01-30T14:40:47.614Z,74.91
2023-01-30T14:43:53.107Z,75.96
2023-01-30T14:46:55.101Z,76.09
2023-01-30T14:49:31.875Z,76.59
2023-01-30T14:52:03.416Z,76.99
2023-01-30T14:54:42.233Z,77.62
2023-01-30T14:57:32.552Z,77.83
2023-01-30T15:00:18.542Z,78.29
2023-01-30T15:02:54.300Z,78.94
2023-01-30T15:05:32.275Z,79.44
2023-01-30T15:08:09.449Z,79.61
2023-01-30T15:10:59.747Z,79.28
2023-01-30T15:13:43.860Z,79.43
2023-01-30T15:16:41.222Z,79.38
2023-01-30T15:19:38.739Z,78.64
2023-01-30T15:22:23.971Z,77.78
2023-01-30T15:25:34.700Z,77.41
2023-01-30T15:28:36.987Z,77.17
2023-01-30T15:31:12.520Z,77.97
2023-01-30T15:33:49.405Z,78.18
2023-01-30T15:36:38.702Z,77.65
2023-01-30T15:39:20.345Z,76.05
2023-01-30T15:41:52.495Z,75.81
2023-01-30T15:44:54.853Z,76.09
2023-01-30T15:47:48.281Z,76.40
2023-01-30T15:50:17.462Z,76.44
2023-01-30T15:52:49.824Z,75.89
2023-01-30T15:55:24.573Z,75.94
2023-01-30T15:57:59.135Z,75.24
2023-01-30T16:00:32.589Z,76.30
2023-01-30T16:03:05.903Z,75.75
2023-01-30T16:05:34.144Z,75.25
2023-01-30T16:08:21.033Z,75.62
2023-01-30T16:10:49.828Z,75.58
2023-01-30T16:13:21.032Z,75.93
2023-01-30T16:15:57.800Z,75.71
2023-01-30T16:18:34.442Z,75.67
2023-01-30T16:21:08.549Z,75.56
2023-01-30T16:23:41.866Z,74.73
2023-01-30T16:26:21.660Z,73.46
2023-01-30T16:28:59.507Z,72.03
2023-01-30T16:31:34.476Z,71.62
2023-01-30T16:34:03.016Z,71.59
2023-01-30T16:36:39.202Z,71.17
2023-01-30T16:39:31.132Z,71.80
2023-01-30T16:42:02.144Z,71.53
2023-01-30T16:44:33.237Z,71.55
2023-01-30T16:47:24.160Z,71.67
2023-01-30T16:49:54.305Z,71.15
2023-01-30T16:52:27.206Z,71.83
2023-01-30T16:54:59.605Z,70.97
2023-01-30T16:57:36.627Z,69.94
2023-01-30T17:00:24.317Z,69.84
2023-01-30T17:02:56.812Z,69.83
2023-01-30T17:05:28.505Z,69.72
2023-01-30T17:08:00.470Z,69.12
2023-01-30T17:11:03.524Z,69.30
2023-01-30T17:13:37.143Z,69.29
2023-01-30T17:16:35.182Z,69.83
2023-01-30T17:19:04.004Z,69.66
2023-01-30T17:21:44.151Z,69.94
2023-01-30T17:24:17.391Z,70.64
2023-01-30T17:26:48.031Z,71.09
2023-01-30T17:29:23.459Z,71.22
2023-01-30T17:32:11.159Z,71.67
2023-01-30T17:34:41.132Z,71.42
2023-01-30T17:37:16.790Z,71.32
2023-01-30T17:39:45.228Z,70.92
2023-01-30T17:42:15.245Z,71.27
2023-01-30T17:44:43.456Z,70.46
2023-01-30T17:47:13.482Z,71.17
2023-01-30T17:49:41.683Z,69.89
2023-01-30T17:52:10.064Z,69.31
2023-01-30T17:54:38.117Z,69.31
2023-01-30T17:57:09.675Z,69.08
2023-01-30T17:59:37.818Z,69.93
2023-01-30T18:02:11.661Z,69.51
2023-01-30T18:04:40.661Z,69.64
2023-01-30T18:07:14.216Z,70.35
2023-01-30T18:09:42.299Z,69.90
2023-01-30T18:12:10.404Z,69.50
2023-01-30T18:14:38.510Z,69.11
2023-01-30T18:17:06.747Z,69.07
2023-01-30T18:19:37.379Z,69.54
2023-01-30T18:22:05.463Z,69.37
2023-01-30T18:24:34.256Z,69.11
2023-01-30T18:27:02.372Z,69.55
2023-01-30T18:29:30.813Z,69.31
2023-01-30T18:32:04.862Z,68.83
2023-01-30T18:34:33.457Z,68.46
2023-01-30T18:37:03.213Z,68.40
2023-01-30T18:39:31.876Z,68.11
2023-01-30T18:42:01.993Z,67.95
2023-01-30T18:44:30.238Z,68.08
2023-01-30T18:46:58.583Z,68.33
2023-01-30T18:49:26.970Z,68.66
2023-01-30T18:51:55.055Z,69.22
2023-01-30T18:54:24.537Z,68.78
2023-01-30T18:56:52.664Z,69.17
2023-01-30T18:59:20.929Z,69.35
2023-01-30T19:01:48.986Z,69.38
2023-01-30T19:04:17.061Z,69.76
2023-01-30T19:06:45.540Z,69.83
2023-01-30T19:09:17.285Z,70.22
2023-01-30T19:12:04.185Z,70.10
2023-01-30T19:14:32.304Z,70.22
2023-01-30T19:17:00.417Z,70.38
2023-01-30T19:19:28.555Z,70.77
2023-01-30T19:21:56.662Z,71.25
2023-01-30T19:24:25.093Z,71.48
2023-01-30T19:26:54.739Z,71.27
2023-01-30T19:29:23.126Z,70.77
2023-01-30T19:31:51.265Z,71.11
2023-01-30T19:34:19.772Z,71.25
2023-01-30T19:36:48.109Z,71.19
2023-01-30T19:39:16.243Z,70.69
2023-01-30T19:41:44.453Z,70.36
2023-01-30T19:44:14.134Z,70.84
2023-01-30T19:46:43.094Z,71.47
2023-01-30T19:49:12.886Z,71.41
2023-01-30T19:51:41.739Z,71.79
2023-01-30T19:54:12.800Z,72.22
2023-01-30T19:56:41.914Z,72.71
2023-01-30T19:59:13.879Z,71.90
2023-01-30T20:01:41.993Z,71.20
2023-01-30T20:04:10.178Z,70.64
2023-01-30T20:06:39.244Z,70.40
2023-01-30T20:09:11.083Z,70.29
2023-01-30T20:11:41.938Z,70.98
2023-01-30T20:14:11.716Z,71.21
2023-01-30T20:16:41.726Z,71.74
2023-01-30T20:19:14.579Z,71.84
2023-01-30T20:21:43.625Z,72.09
2023-01-30T20:24:12.913Z,71.93
2023-01-30T20:26:41.253Z,71.46
2023-01-30T20:29:11.417Z,70.97
2023-01-30T20:31:41.009Z,71.43
2023-01-30T20:34:14.529Z,71.51
2023-01-30T20:36:42.745Z,71.06
2023-01-30T20:39:11.406Z,71.68
2023-01-30T20:41:39.807Z,71.18
2023-01-30T20:44:13.056Z,70.13
2023-01-30T20:46:45.728Z,70.15
2023-01-30T20:49:16.755Z,69.50
2023-01-30T20:51:46.156Z,69.48
2023-01-30T20:54:16.082Z,69.71
2023-01-30T20:56:46.938Z,69.62
2023-01-30T20:59:17.964Z,69.55
2023-01-30T21:01:47.768Z,69.27
2023-01-30T21:04:18.190Z,69.16
2023-01-30T21:06:47.329Z,68.96
2023-01-30T21:09:18.551Z,68.55
2023-01-30T21:11:47.895Z,68.44
2023-01-30T21:14:17.571Z,67.63
2023-01-30T21:16:47.725Z,67.79
2023-01-30T21:19:18.247Z,68.00
2023-01-30T21:21:50.650Z,67.83
2023-01-30T21:24:23.722Z,68.45
2023-01-30T21:26:53.018Z,67.94
2023-01-30T21:29:24.644Z,68.43
2023-01-30T21:31:55.500Z,68.12
2023-01-30T21:34:24.152Z,67.82
2023-01-30T21:37:06.252Z,67.79
2023-01-30T21:39:51.618Z,67.99
2023-01-30T21:42:37.827Z,67.78
2023-01-30T21:45:07.672Z,67.94
2023-01-30T21:47:37.342Z,68.35
2023-01-30T21:50:06.706Z,68.80
2023-01-30T21:52:34.980Z,68.83
2023-01-30T21:55:03.073Z,68.53
2023-01-30T21:57:31.317Z,68.61
2023-01-30T21:59:59.433Z,68.39
2023-01-30T22:02:27.591Z,69.06
2023-01-30T22:04:57.068Z,69.26
2023-01-30T22:07:25.189Z,69.67
2023-01-30T22:09:53.281Z,70.34
2023-01-30T22:12:21.440Z,70.58
2023-01-30T22:14:49.615Z,70.76
2023-01-30T22:17:17.799Z,71.11
2023-01-30T22:19:46.299Z,71.06
2023-01-30T22:22:15.854Z,71.18
2023-01-30T22:24:43.974Z,71.31
2023-01-30T22:27:12.228Z,71.60
2023-01-30T22:29:40.312Z,71.70
2023-01-30T22:32:08.481Z,71.84
2023-01-30T22:34:36.892Z,72.42
2023-01-30T22:37:05.115Z,72.42
2023-01-30T22:39:34.616Z,72.43
2023-01-30T22:42:02.762Z,73.19
2023-01-30T22:44:30.883Z,73.13
2023-01-30T22:46:59.036Z,73.31
2023-01-30T22:49:27.326Z,73.60
2023-01-30T22:51:55.503Z,73.70
2023-01-30T22:54:25.032Z,73.62
2023-01-30T22:56:54.948Z,74.04
2023-01-30T22:59:23.261Z,74.31
2023-01-30T23:01:52.069Z,73.26
2023-01-30T23:04:22.925Z,72.59
2023-01-30T23:06:52.329Z,72.63
2023-01-30T23:09:23.567Z,72.60
2023-01-30T23:12:13.219Z,72.53
2023-01-30T23:14:42.719Z,72.02
2023-01-30T23:17:28.191Z,72.13
2023-01-30T23:19:57.040Z,72.98
2023-01-30T23:22:25.565Z,72.80
2023-01-30T23:24:54.047Z,72.78
2023-01-30T23:27:23.621Z,73.29
2023-01-30T23:29:51.766Z,74.52
2023-01-30T23:32:20.135Z,75.16
2023-01-30T23:34:48.731Z,75.24
2023-01-30T23:37:17.313Z,75.19
2023-01-30T23:39:46.499Z,75.49
2023-01-30T23:42:14.674Z,76.05
2023-01-30T23:44:44.218Z,75.81
2023-01-30T23:47:12.341Z,75.89
2023-01-30T23:49:40.476Z,76.31
2023-01-30T23:52:11.166Z,76.59
2023-01-30T23:54:39.732Z,75.99
2023-01-30T23:57:07.912Z,75.82
2023-01-30T23:59:36.286Z,74.82
